createdAt,value
2018-07-19T00:00:20.761Z,19.56
2018-07-19T00:02:49.866Z,19.57
2018-07-19T00:05:18.959Z,19.50
2018-07-19T00:07:48.065Z,19.52
2018-07-19T00:10:17.153Z,19.44
2018-07-19T00:12:46.249Z,19.38
2018-07-19T00:15:15.344Z,19.11
2018-07-19T00:17:44.437Z,19.19
2018-07-19T00:20:13.523Z,19.33
2018-07-19T00:22:42.645Z,19.07
2018-07-19T00:25:11.729Z,19.28
2018-07-19T00:27:40.817Z,19.23
2018-07-19T00:30:09.946Z,19.21
2018-07-19T00:32:39.143Z,19.22
2018-07-19T00:35:08.250Z,19.17
2018-07-19T00:37:37.335Z,18.87
2018-07-19T00:40:06.449Z,19.07
2018-07-19T00:42:35.529Z,18.86
2018-07-19T00:45:04.674Z,19.04
2018-07-19T00:47:33.757Z,18.88
2018-07-19T00:50:02.877Z,18.85
2018-07-19T00:52:31.976Z,18.92
2018-07-19T00:55:01.158Z,19.07
2018-07-19T00:57:30.291Z,19.03
2018-07-19T00:59:59.366Z,19.00
2018-07-19T01:02:28.473Z,18.69
2018-07-19T01:04:57.570Z,18.42
2018-07-19T01:07:26.701Z,18.63
2018-07-19T01:09:55.801Z,18.69
2018-07-19T01:12:24.929Z,18.12
2018-07-19T01:14:54.023Z,18.50
2018-07-19T01:17:23.105Z,18.62
2018-07-19T01:19:52.227Z,18.47
2018-07-19T01:22:21.333Z,18.53
2018-07-19T01:24:50.441Z,18.41
2018-07-19T01:27:19.650Z,18.23
2018-07-19T01:29:48.737Z,18.40
2018-07-19T01:32:17.837Z,18.46
2018-07-19T01:34:46.925Z,18.48
2018-07-19T01:37:16.045Z,18.46
2018-07-19T01:39:45.133Z,18.00
2018-07-19T01:42:28.666Z,17.94
2018-07-19T01:44:57.749Z,18.10
2018-07-19T01:47:26.860Z,18.21
2018-07-19T01:49:56.002Z,18.37
2018-07-19T01:52:25.108Z,18.33
2018-07-19T01:54:54.225Z,18.26
2018-07-19T01:57:23.338Z,18.21
2018-07-19T01:59:52.421Z,18.20
2018-07-19T02:02:21.545Z,18.14
2018-07-19T02:04:50.613Z,18.19
2018-07-19T02:07:19.717Z,18.12
2018-07-19T02:09:48.830Z,18.03
2018-07-19T02:12:17.961Z,17.89
2018-07-19T02:14:47.061Z,17.82
2018-07-19T02:17:16.167Z,18.09
2018-07-19T02:19:45.254Z,18.02
2018-07-19T02:22:14.380Z,18.00
2018-07-19T02:24:43.762Z,18.05
2018-07-19T02:27:12.821Z,17.76
2018-07-19T02:29:41.933Z,17.89
2018-07-19T02:32:11.056Z,17.80
2018-07-19T02:34:40.161Z,17.74
2018-07-19T02:37:09.281Z,17.84
2018-07-19T02:39:38.385Z,17.84
2018-07-19T02:42:07.496Z,17.84
2018-07-19T02:44:36.605Z,17.67
2018-07-19T02:47:05.773Z,17.63
2018-07-19T02:49:34.863Z,17.63
2018-07-19T02:52:03.976Z,17.60
2018-07-19T02:54:33.089Z,17.60
2018-07-19T02:57:02.217Z,17.73
2018-07-19T02:59:31.316Z,17.59
2018-07-19T03:02:00.437Z,17.59
2018-07-19T03:04:29.500Z,17.57
2018-07-19T03:06:58.591Z,17.62
2018-07-19T03:09:27.701Z,17.19
2018-07-19T03:11:56.797Z,17.15
2018-07-19T03:14:25.933Z,17.34
2018-07-19T03:16:55.040Z,17.58
2018-07-19T03:19:24.121Z,17.39
2018-07-19T03:21:53.221Z,17.59
2018-07-19T03:24:22.304Z,17.46
2018-07-19T03:26:51.404Z,17.37
2018-07-19T03:29:20.509Z,17.40
2018-07-19T03:31:49.593Z,17.18
2018-07-19T03:34:18.701Z,17.34
2018-07-19T03:36:47.957Z,17.24
2018-07-19T03:39:17.089Z,17.04
2018-07-19T03:41:46.202Z,17.22
2018-07-19T03:44:15.311Z,17.19
2018-07-19T03:46:44.413Z,17.09
2018-07-19T03:49:13.530Z,17.12
2018-07-19T03:51:42.693Z,17.25
2018-07-19T03:54:11.785Z,17.07
2018-07-19T03:56:40.897Z,17.26
2018-07-19T03:59:09.976Z,17.18
2018-07-19T04:01:39.085Z,17.31
2018-07-19T04:04:08.189Z,17.26
2018-07-19T04:06:37.314Z,17.31
2018-07-19T04:09:07.284Z,17.32
2018-07-19T04:11:36.366Z,17.20
2018-07-19T04:14:05.809Z,17.12
2018-07-19T04:16:34.905Z,17.05
2018-07-19T04:19:04.006Z,17.12
2018-07-19T04:21:33.101Z,17.22
2018-07-19T04:24:02.190Z,17.23
2018-07-19T04:26:31.285Z,17.31
2018-07-19T04:29:00.383Z,17.22
2018-07-19T04:31:29.485Z,17.16
2018-07-19T04:33:58.609Z,17.24
2018-07-19T04:36:27.713Z,17.36
2018-07-19T04:38:56.813Z,17.16
2018-07-19T04:41:25.925Z,17.16
2018-07-19T04:43:55.035Z,17.32
2018-07-19T04:46:24.140Z,17.04
2018-07-19T04:48:53.249Z,17.07
2018-07-19T04:51:22.377Z,17.14
2018-07-19T04:53:51.501Z,17.05
2018-07-19T04:56:20.593Z,16.84
2018-07-19T04:58:49.711Z,16.67
2018-07-19T05:01:18.810Z,16.79
2018-07-19T05:03:47.897Z,16.84
2018-07-19T05:06:16.989Z,17.12
2018-07-19T05:08:46.105Z,17.17
2018-07-19T05:11:15.241Z,17.09
2018-07-19T05:13:44.369Z,17.30
2018-07-19T05:16:13.598Z,16.90
2018-07-19T05:18:42.781Z,17.03
2018-07-19T05:21:11.899Z,17.03
2018-07-19T05:23:41.013Z,17.11
2018-07-19T05:26:10.098Z,17.33
2018-07-19T05:28:39.332Z,17.17
2018-07-19T05:31:08.456Z,17.22
2018-07-19T05:33:37.592Z,17.40
2018-07-19T05:36:06.955Z,17.53
2018-07-19T05:38:36.096Z,17.57
2018-07-19T05:41:05.286Z,17.69
2018-07-19T05:43:34.425Z,17.83
2018-07-19T05:46:03.529Z,17.76
2018-07-19T05:48:32.810Z,17.72
2018-07-19T05:51:02.203Z,17.93
2018-07-19T05:53:31.286Z,17.77
2018-07-19T05:56:00.501Z,18.02
2018-07-19T05:58:29.621Z,18.16
2018-07-19T06:00:58.729Z,18.29
2018-07-19T06:03:27.821Z,18.16
2018-07-19T06:05:56.987Z,18.37
2018-07-19T06:08:26.246Z,18.25
2018-07-19T06:10:55.365Z,18.42
2018-07-19T06:13:24.519Z,18.30
2018-07-19T06:15:53.693Z,18.34
2018-07-19T06:18:22.816Z,18.49
2018-07-19T06:20:51.913Z,18.69
2018-07-19T06:23:21.093Z,18.87
2018-07-19T06:25:50.185Z,18.13
2018-07-19T06:28:19.283Z,18.36
2018-07-19T06:30:48.409Z,18.55
2018-07-19T06:33:17.501Z,18.76
2018-07-19T06:35:46.641Z,18.70
2018-07-19T06:38:15.725Z,18.71
2018-07-19T06:40:44.848Z,18.70
2018-07-19T06:43:13.945Z,18.44
2018-07-19T06:45:43.232Z,18.64
2018-07-19T06:48:12.321Z,18.79
2018-07-19T06:50:41.413Z,19.24
2018-07-19T06:53:10.569Z,19.19
2018-07-19T06:55:39.669Z,19.27
2018-07-19T06:58:19.533Z,19.77
2018-07-19T07:00:48.648Z,19.75
2018-07-19T07:03:17.741Z,20.30
2018-07-19T07:05:47.061Z,20.50
2018-07-19T07:08:16.141Z,20.36
2018-07-19T07:10:45.257Z,20.62
2018-07-19T07:13:14.345Z,20.86
2018-07-19T07:15:43.449Z,20.87
2018-07-19T07:18:12.541Z,21.42
2018-07-19T07:20:46.209Z,21.45
2018-07-19T07:23:15.357Z,21.94
2018-07-19T07:25:48.625Z,21.78
2018-07-19T07:28:18.533Z,22.10
2018-07-19T07:30:47.677Z,22.63
2018-07-19T07:33:17.279Z,22.61
2018-07-19T07:35:47.130Z,23.57
2018-07-19T07:38:16.822Z,23.47
2018-07-19T07:40:46.255Z,23.98
2018-07-19T07:43:15.389Z,23.23
2018-07-19T07:45:44.617Z,24.28
2018-07-19T07:48:13.730Z,23.57
2018-07-19T07:50:42.909Z,23.27
2018-07-19T07:53:11.994Z,23.74
2018-07-19T07:55:41.074Z,24.78
2018-07-19T07:58:10.242Z,25.00
2018-07-19T08:00:39.313Z,24.36
2018-07-19T08:03:08.598Z,25.38
2018-07-19T08:05:37.745Z,23.67
2018-07-19T08:08:06.857Z,24.17
2018-07-19T08:10:35.978Z,23.48
2018-07-19T08:13:05.066Z,23.76
2018-07-19T08:15:34.164Z,23.97
2018-07-19T08:18:03.313Z,24.40
2018-07-19T08:20:32.441Z,24.52
2018-07-19T08:23:01.541Z,24.53
2018-07-19T08:25:30.765Z,23.86
2018-07-19T08:28:00.061Z,24.05
2018-07-19T08:30:29.152Z,23.79
2018-07-19T08:32:58.274Z,24.27
2018-07-19T08:35:27.446Z,24.16
2018-07-19T08:37:56.589Z,24.29
2018-07-19T08:40:25.753Z,24.29
2018-07-19T08:42:55.093Z,24.46
2018-07-19T08:45:24.201Z,24.61
2018-07-19T08:47:53.289Z,25.27
2018-07-19T08:50:22.369Z,25.86
2018-07-19T08:52:51.461Z,25.86
2018-07-19T08:55:20.629Z,25.97
2018-07-19T08:57:49.722Z,25.99
2018-07-19T09:00:19.710Z,25.58
2018-07-19T09:02:48.805Z,25.69
2018-07-19T09:05:17.981Z,26.06
2018-07-19T09:07:47.157Z,26.75
2018-07-19T09:10:16.807Z,27.21
2018-07-19T09:12:45.937Z,26.89
2018-07-19T09:15:15.040Z,26.42
2018-07-19T09:17:44.149Z,24.88
2018-07-19T09:20:13.277Z,24.90
2018-07-19T09:22:42.381Z,25.63
2018-07-19T09:25:11.485Z,25.55
2018-07-19T09:27:40.573Z,26.22
2018-07-19T09:30:09.697Z,27.33
2018-07-19T09:32:38.797Z,27.48
2018-07-19T09:35:07.914Z,27.47
2018-07-19T09:37:37.009Z,26.54
2018-07-19T09:40:06.277Z,26.18
2018-07-19T09:42:35.461Z,26.56
2018-07-19T09:45:04.681Z,26.96
2018-07-19T09:47:33.786Z,27.48
2018-07-19T09:50:02.902Z,26.99
2018-07-19T09:52:32.017Z,26.64
2018-07-19T09:55:02.326Z,27.31
2018-07-19T09:57:32.117Z,27.59
2018-07-19T10:00:01.215Z,26.44
2018-07-19T10:02:30.306Z,27.20
2018-07-19T10:04:59.401Z,26.86
2018-07-19T10:07:28.498Z,26.55
2018-07-19T10:09:57.643Z,27.56
2018-07-19T10:12:26.668Z,27.47
2018-07-19T10:14:55.758Z,27.44
2018-07-19T10:17:24.882Z,28.13
2018-07-19T10:19:53.937Z,26.81
2018-07-19T10:22:23.049Z,26.25
2018-07-19T10:24:52.137Z,27.50
2018-07-19T10:27:21.213Z,27.55
2018-07-19T10:29:50.362Z,27.39
2018-07-19T10:32:19.614Z,27.87
2018-07-19T10:34:48.579Z,28.06
2018-07-19T10:37:17.685Z,27.72
2018-07-19T10:39:46.781Z,28.05
2018-07-19T10:42:16.394Z,27.48
2018-07-19T10:44:45.537Z,27.64
2018-07-19T10:47:14.665Z,28.30
2018-07-19T10:49:43.751Z,27.67
2018-07-19T10:52:12.857Z,28.08
2018-07-19T10:54:41.957Z,28.00
2018-07-19T10:57:11.053Z,28.59
2018-07-19T10:59:40.169Z,28.34
2018-07-19T11:02:09.597Z,28.02
2018-07-19T11:04:38.721Z,27.95
2018-07-19T11:07:07.842Z,27.89
2018-07-19T11:09:36.959Z,28.25
2018-07-19T11:12:06.245Z,28.34
2018-07-19T11:14:35.541Z,27.94
2018-07-19T11:17:04.720Z,28.24
2018-07-19T11:19:33.805Z,27.74
2018-07-19T11:22:02.896Z,27.61
2018-07-19T11:24:32.014Z,27.73
2018-07-19T11:27:01.154Z,28.31
2018-07-19T11:29:30.273Z,28.50
2018-07-19T11:31:59.385Z,28.67
2018-07-19T11:34:28.465Z,29.22
2018-07-19T11:36:57.589Z,28.86
2018-07-19T11:39:26.740Z,28.40
2018-07-19T11:41:56.382Z,28.27
2018-07-19T11:44:25.513Z,28.21
2018-07-19T11:46:54.617Z,28.12
2018-07-19T11:49:23.740Z,28.56
2018-07-19T11:51:52.865Z,28.37
2018-07-19T11:54:21.969Z,28.50
2018-07-19T11:56:51.125Z,28.47
2018-07-19T11:59:20.761Z,28.37
2018-07-19T12:01:49.906Z,28.11
2018-07-19T12:04:19.309Z,28.34
2018-07-19T12:06:48.433Z,28.16
2018-07-19T12:09:17.581Z,28.59
2018-07-19T12:11:46.685Z,28.84
2018-07-19T12:14:15.793Z,29.03
2018-07-19T12:16:44.889Z,28.50
2018-07-19T12:19:13.993Z,28.33
2018-07-19T12:21:43.169Z,28.93
2018-07-19T12:24:12.264Z,28.89
2018-07-19T12:26:41.371Z,28.60
2018-07-19T12:29:10.459Z,28.94
2018-07-19T12:31:39.605Z,28.16
2018-07-19T12:34:08.698Z,28.11
2018-07-19T12:36:37.873Z,28.81
2018-07-19T12:39:09.114Z,29.29
2018-07-19T12:41:38.245Z,29.31
2018-07-19T12:44:07.604Z,28.83
2018-07-19T12:46:36.699Z,27.84
2018-07-19T12:49:06.353Z,29.03
2018-07-19T12:51:35.513Z,28.69
2018-07-19T12:54:04.623Z,29.61
2018-07-19T12:56:33.742Z,28.88
2018-07-19T12:59:02.845Z,29.48
2018-07-19T13:01:32.039Z,29.31
2018-07-19T13:04:01.147Z,30.09
2018-07-19T13:06:30.305Z,29.91
2018-07-19T13:08:59.468Z,29.80
2018-07-19T13:11:28.553Z,29.02
2018-07-19T13:13:58.342Z,29.38
2018-07-19T13:16:27.482Z,29.41
2018-07-19T13:18:56.709Z,29.82
2018-07-19T13:21:26.005Z,30.26
2018-07-19T13:23:56.669Z,30.40
2018-07-19T13:26:26.062Z,30.64
2018-07-19T13:28:55.213Z,29.97
2018-07-19T13:31:24.382Z,30.18
2018-07-19T13:33:54.385Z,30.21
2018-07-19T13:36:23.521Z,28.78
2018-07-19T13:38:52.670Z,28.78
2018-07-19T13:41:21.841Z,29.27
2018-07-19T13:43:50.961Z,29.38
2018-07-19T13:46:20.088Z,29.32
2018-07-19T13:48:49.205Z,29.81
2018-07-19T13:51:18.373Z,29.33
2018-07-19T13:54:17.828Z,29.25
2018-07-19T13:56:46.937Z,29.48
2018-07-19T13:59:16.997Z,29.64
2018-07-19T14:01:46.154Z,30.08
2018-07-19T14:04:15.327Z,29.99
2018-07-19T14:06:44.368Z,30.29
2018-07-19T14:09:14.854Z,30.23
2018-07-19T14:11:44.047Z,30.12
2018-07-19T14:14:13.197Z,30.42
2018-07-19T14:16:42.301Z,30.01
2018-07-19T14:19:11.470Z,30.33
2018-07-19T14:21:40.597Z,30.49
2018-07-19T14:24:09.809Z,30.62
2018-07-19T14:26:39.001Z,29.93
2018-07-19T14:29:08.095Z,30.10
2018-07-19T14:31:37.230Z,30.34
2018-07-19T14:34:06.398Z,29.93
2018-07-19T14:36:35.573Z,30.02
2018-07-19T14:39:08.057Z,29.83
2018-07-19T14:41:37.280Z,28.94
2018-07-19T14:44:07.503Z,29.92
2018-07-19T14:46:36.585Z,29.66
2018-07-19T14:49:05.769Z,29.76
2018-07-19T14:51:34.944Z,29.53
2018-07-19T14:54:04.061Z,29.17
2018-07-19T14:56:33.197Z,29.69
2018-07-19T14:59:02.309Z,29.28
2018-07-19T15:01:31.430Z,29.56
2018-07-19T15:04:00.548Z,29.62
2018-07-19T15:06:29.651Z,29.71
2018-07-19T15:08:58.813Z,30.06
2018-07-19T15:11:27.977Z,30.18
2018-07-19T15:13:57.163Z,30.14
2018-07-19T15:16:26.248Z,29.84
2018-07-19T15:18:55.506Z,29.58
2018-07-19T15:21:24.641Z,28.84
2018-07-19T15:23:53.769Z,29.42
2018-07-19T15:26:22.872Z,29.61
2018-07-19T15:28:52.065Z,29.80
2018-07-19T15:31:21.108Z,29.49
2018-07-19T15:33:50.237Z,29.93
2018-07-19T15:36:19.357Z,29.67
2018-07-19T15:38:48.527Z,29.58
2018-07-19T15:41:17.641Z,29.89
2018-07-19T15:43:46.737Z,30.12
2018-07-19T15:46:15.845Z,30.22
2018-07-19T15:48:45.030Z,30.18
2018-07-19T15:51:14.173Z,29.63
2018-07-19T15:53:43.321Z,29.87
2018-07-19T15:56:12.409Z,29.65
2018-07-19T15:58:41.559Z,30.01
2018-07-19T16:01:10.643Z,29.94
2018-07-19T16:03:39.727Z,30.22
2018-07-19T16:06:08.868Z,29.73
2018-07-19T16:08:37.949Z,29.98
2018-07-19T16:11:07.173Z,29.48
2018-07-19T16:13:36.345Z,29.57
2018-07-19T16:16:05.450Z,29.36
2018-07-19T16:18:34.577Z,29.46
2018-07-19T16:21:03.705Z,29.00
2018-07-19T16:23:32.805Z,29.22
2018-07-19T16:26:01.966Z,29.37
2018-07-19T16:28:31.041Z,29.39
2018-07-19T16:31:00.158Z,29.46
2018-07-19T16:33:29.243Z,29.35
2018-07-19T16:35:58.432Z,29.33
2018-07-19T16:38:27.549Z,29.15
2018-07-19T16:40:56.738Z,29.15
2018-07-19T16:43:25.768Z,29.11
2018-07-19T16:45:54.869Z,29.03
2018-07-19T16:48:23.991Z,29.01
2018-07-19T16:50:53.092Z,29.02
2018-07-19T16:53:22.299Z,29.15
2018-07-19T16:55:51.398Z,29.19
2018-07-19T16:58:20.530Z,29.24
2018-07-19T17:00:49.745Z,29.10
2018-07-19T17:03:18.829Z,29.08
2018-07-19T17:05:48.013Z,28.89
2018-07-19T17:08:17.108Z,28.90
2018-07-19T17:10:46.545Z,28.86
2018-07-19T17:13:15.926Z,28.90
2018-07-19T17:15:45.026Z,28.87
2018-07-19T17:18:14.166Z,28.78
2018-07-19T17:20:43.279Z,28.66
2018-07-19T17:23:12.377Z,28.84
2018-07-19T17:25:41.549Z,28.81
2018-07-19T17:28:10.698Z,28.85
2018-07-19T17:30:39.911Z,28.71
2018-07-19T17:33:09.017Z,28.58
2018-07-19T17:35:38.116Z,28.54
2018-07-19T17:38:07.229Z,28.58
2018-07-19T17:40:36.349Z,28.67
2018-07-19T17:43:05.798Z,28.57
2018-07-19T17:45:35.141Z,28.52
2018-07-19T17:48:04.253Z,28.38
2018-07-19T17:50:33.349Z,28.53
2018-07-19T17:53:02.442Z,28.44
2018-07-19T17:55:31.561Z,28.42
2018-07-19T17:58:00.721Z,28.43
2018-07-19T18:00:29.809Z,28.39
2018-07-19T18:02:58.901Z,28.38
2018-07-19T18:05:27.993Z,28.39
2018-07-19T18:07:57.139Z,28.38
2018-07-19T18:10:26.225Z,28.43
2018-07-19T18:12:55.532Z,28.36
2018-07-19T18:15:24.673Z,28.31
2018-07-19T18:17:53.953Z,28.19
2018-07-19T18:20:23.100Z,28.06
2018-07-19T18:22:52.165Z,27.96
2018-07-19T18:25:21.249Z,28.01
2018-07-19T18:27:50.365Z,27.91
2018-07-19T18:30:19.458Z,27.91
2018-07-19T18:32:48.583Z,27.93
2018-07-19T18:35:17.661Z,27.97
2018-07-19T18:37:46.761Z,27.81
2018-07-19T18:40:15.849Z,27.82
2018-07-19T18:42:44.961Z,27.61
2018-07-19T18:45:14.117Z,27.56
2018-07-19T18:47:43.209Z,27.60
2018-07-19T18:50:12.343Z,27.55
2018-07-19T18:52:41.446Z,27.47
2018-07-19T18:55:10.553Z,27.38
2018-07-19T18:57:39.653Z,27.33
2018-07-19T19:00:08.798Z,27.24
2018-07-19T19:02:37.889Z,27.16
2018-07-19T19:05:07.031Z,26.98
2018-07-19T19:07:36.121Z,27.11
2018-07-19T19:10:05.332Z,26.94
2018-07-19T19:12:34.425Z,26.73
2018-07-19T19:15:03.571Z,26.62
2018-07-19T19:17:32.700Z,26.65
2018-07-19T19:20:01.781Z,26.27
2018-07-19T19:22:30.917Z,26.25
2018-07-19T19:25:00.020Z,26.24
2018-07-19T19:27:29.145Z,25.97
2018-07-19T19:29:58.270Z,25.88
2018-07-19T19:32:27.749Z,26.01
2018-07-19T19:34:56.873Z,25.89
2018-07-19T19:37:25.972Z,25.82
2018-07-19T19:39:55.089Z,25.83
2018-07-19T19:42:24.172Z,25.76
2018-07-19T19:44:53.324Z,25.53
2018-07-19T19:47:22.385Z,25.35
2018-07-19T19:49:51.494Z,25.41
2018-07-19T19:52:20.622Z,25.31
2018-07-19T19:54:49.786Z,25.35
2018-07-19T19:57:18.979Z,25.24
2018-07-19T19:59:48.137Z,25.12
2018-07-19T20:02:17.223Z,24.80
2018-07-19T20:04:46.929Z,24.96
2018-07-19T20:07:16.037Z,25.08
2018-07-19T20:09:45.221Z,24.37
2018-07-19T20:12:14.393Z,24.67
2018-07-19T20:14:43.488Z,24.62
2018-07-19T20:17:12.651Z,24.34
2018-07-19T20:19:41.783Z,24.42
2018-07-19T20:22:10.898Z,24.12
2018-07-19T20:24:40.395Z,24.24
2018-07-19T20:27:09.553Z,23.93
2018-07-19T20:29:38.645Z,24.06
2018-07-19T20:32:07.759Z,24.20
2018-07-19T20:34:36.984Z,24.09
2018-07-19T20:37:06.076Z,23.61
2018-07-19T20:39:35.173Z,23.90
2018-07-19T20:42:04.349Z,23.62
2018-07-19T20:44:33.481Z,23.66
2018-07-19T20:47:02.611Z,23.61
2018-07-19T20:49:31.742Z,23.50
2018-07-19T20:52:00.861Z,23.19
2018-07-19T20:54:29.969Z,23.51
2018-07-19T20:56:59.113Z,23.40
2018-07-19T20:59:28.237Z,23.15
2018-07-19T21:01:57.413Z,23.16
2018-07-19T21:04:26.513Z,23.16
2018-07-19T21:06:55.645Z,23.25
2018-07-19T21:09:24.769Z,23.18
2018-07-19T21:11:53.862Z,23.17
2018-07-19T21:14:22.997Z,23.15
2018-07-19T21:16:52.101Z,22.96
2018-07-19T21:19:21.313Z,22.78
2018-07-19T21:21:50.481Z,22.89
2018-07-19T21:24:19.573Z,22.89
2018-07-19T21:26:48.681Z,22.64
2018-07-19T21:29:17.797Z,22.80
2018-07-19T21:31:46.913Z,22.64
2018-07-19T21:34:16.026Z,22.77
2018-07-19T21:36:45.127Z,22.57
2018-07-19T21:39:14.277Z,22.54
2018-07-19T21:41:43.329Z,22.69
2018-07-19T21:44:12.425Z,22.62
2018-07-19T21:46:41.537Z,22.64
2018-07-19T21:49:11.117Z,22.69
2018-07-19T21:51:40.181Z,22.42
2018-07-19T21:54:09.310Z,22.48
2018-07-19T21:56:38.465Z,22.45
2018-07-19T21:59:07.603Z,22.48
2018-07-19T22:01:40.873Z,22.51
2018-07-19T22:04:10.087Z,22.39
2018-07-19T22:06:39.189Z,22.56
2018-07-19T22:09:09.904Z,22.46
2018-07-19T22:11:39.367Z,22.07
2018-07-19T22:14:08.769Z,22.07
2018-07-19T22:16:39.029Z,22.32
2018-07-19T22:19:08.127Z,22.24
2018-07-19T22:21:37.272Z,22.41
2018-07-19T22:24:06.432Z,22.29
2018-07-19T22:26:35.525Z,22.01
2018-07-19T22:29:04.820Z,21.92
2018-07-19T22:31:34.359Z,21.51
2018-07-19T22:34:03.581Z,21.69
2018-07-19T22:36:32.717Z,21.69
2018-07-19T22:39:01.842Z,21.61
2018-07-19T22:41:30.941Z,21.66
2018-07-19T22:44:00.062Z,21.74
2018-07-19T22:46:29.168Z,21.10
2018-07-19T22:48:58.858Z,20.84
2018-07-19T22:51:28.001Z,21.23
2018-07-19T22:53:57.102Z,20.99
2018-07-19T22:56:26.199Z,21.16
2018-07-19T22:58:55.283Z,21.25
2018-07-19T23:01:24.380Z,21.39
2018-07-19T23:03:53.474Z,21.51
2018-07-19T23:06:22.601Z,21.32
2018-07-19T23:08:51.709Z,21.16
2018-07-19T23:11:20.809Z,21.32
2018-07-19T23:13:49.909Z,21.24
2018-07-19T23:16:19.027Z,21.27
2018-07-19T23:18:48.122Z,21.19
2018-07-19T23:21:17.245Z,21.25
2018-07-19T23:23:48.194Z,21.16
2018-07-19T23:26:17.294Z,21.29
2018-07-19T23:28:46.413Z,21.27
2018-07-19T23:31:15.517Z,21.27
2018-07-19T23:33:44.638Z,21.37
2018-07-19T23:37:16.679Z,21.14
2018-07-19T23:40:21.465Z,21.01
2018-07-19T23:42:54.680Z,20.76
2018-07-19T23:45:28.944Z,20.67
2018-07-19T23:47:58.101Z,20.41
2018-07-19T23:50:27.217Z,20.87
2018-07-19T23:52:56.361Z,20.90
2018-07-19T23:55:25.473Z,20.86
2018-07-19T23:57:54.585Z,20.80
